createdAt,value
2023-03-13T00:00:19.779Z,5.30
2023-03-13T00:02:48.202Z,5.70
2023-03-13T00:05:16.832Z,5.60
2023-03-13T00:07:45.592Z,5.20
2023-03-13T00:10:13.921Z,6.00
2023-03-13T00:12:43.809Z,5.40
2023-03-13T00:15:12.811Z,4.70
2023-03-13T00:17:41.237Z,5.50
2023-03-13T00:20:11.254Z,5.40
2023-03-13T00:22:39.761Z,5.27
2023-03-13T00:25:08.758Z,5.47
2023-03-13T00:27:37.087Z,4.90
2023-03-13T00:30:07.764Z,4.70
2023-03-13T00:32:41.342Z,5.40
2023-03-13T00:35:10.148Z,4.83
2023-03-13T00:37:38.589Z,4.63
2023-03-13T00:40:08.988Z,4.57
2023-03-13T00:42:37.440Z,4.40
2023-03-13T00:45:08.265Z,4.57
2023-03-13T00:47:36.676Z,4.33
2023-03-13T00:50:05.521Z,4.30
2023-03-13T00:52:33.907Z,4.27
2023-03-13T00:55:02.301Z,4.50
2023-03-13T00:57:30.782Z,4.17
2023-03-13T00:59:59.221Z,4.23
2023-03-13T01:02:29.087Z,4.17
2023-03-13T01:05:00.065Z,4.33
2023-03-13T01:07:30.220Z,4.40
2023-03-13T01:09:58.829Z,3.97
2023-03-13T01:12:27.273Z,4.40
2023-03-13T01:14:55.851Z,3.60
2023-03-13T01:17:24.388Z,4.17
2023-03-13T01:19:57.235Z,4.17
2023-03-13T01:22:25.733Z,4.20
2023-03-13T01:24:54.605Z,4.37
2023-03-13T01:27:23.036Z,4.10
2023-03-13T01:29:51.768Z,4.77
2023-03-13T01:32:20.302Z,4.60
2023-03-13T01:34:48.914Z,4.50
2023-03-13T01:37:18.739Z,4.73
2023-03-13T01:39:47.259Z,4.27
2023-03-13T01:42:15.986Z,4.10
2023-03-13T01:44:54.263Z,4.27
2023-03-13T01:47:23.488Z,4.40
2023-03-13T01:50:15.180Z,4.10
2023-03-13T01:52:53.177Z,4.20
2023-03-13T01:55:27.282Z,4.30
2023-03-13T01:57:56.532Z,4.20
2023-03-13T02:00:30.295Z,4.20
2023-03-13T02:03:04.176Z,4.00
2023-03-13T02:05:35.440Z,4.47
2023-03-13T02:08:08.783Z,4.20
2023-03-13T02:10:43.011Z,4.50
2023-03-13T02:13:15.141Z,4.50
2023-03-13T02:15:44.019Z,4.03
2023-03-13T02:18:12.790Z,4.57
2023-03-13T02:20:41.831Z,4.70
2023-03-13T02:23:20.483Z,4.50
2023-03-13T02:25:52.480Z,4.57
2023-03-13T02:28:36.256Z,5.23
2023-03-13T02:31:09.366Z,5.57
2023-03-13T02:33:40.990Z,5.70
2023-03-13T02:36:12.372Z,5.73
2023-03-13T02:38:46.176Z,5.67
2023-03-13T02:41:17.357Z,5.80
2023-03-13T02:43:45.815Z,5.67
2023-03-13T02:46:17.435Z,5.67
2023-03-13T02:48:50.863Z,5.10
2023-03-13T02:51:26.300Z,5.50
2023-03-13T02:53:58.210Z,4.80
2023-03-13T02:56:29.255Z,5.07
2023-03-13T02:58:57.675Z,4.63
2023-03-13T03:01:27.858Z,4.80
2023-03-13T03:03:56.510Z,4.77
2023-03-13T03:06:26.200Z,5.03
2023-03-13T03:08:55.661Z,4.60
2023-03-13T03:11:24.628Z,4.30
2023-03-13T03:14:00.813Z,4.00
2023-03-13T03:16:32.873Z,4.23
2023-03-13T03:19:01.374Z,4.27
2023-03-13T03:21:29.738Z,3.43
2023-03-13T03:23:58.160Z,3.57
2023-03-13T03:26:26.897Z,3.47
2023-03-13T03:28:58.794Z,3.33
2023-03-13T03:31:29.013Z,3.43
2023-03-13T03:33:58.989Z,3.53
2023-03-13T03:36:27.818Z,3.10
2023-03-13T03:38:56.761Z,3.00
2023-03-13T03:41:28.127Z,3.07
2023-03-13T03:43:59.149Z,2.97
2023-03-13T03:46:36.173Z,2.83
2023-03-13T03:49:04.788Z,2.57
2023-03-13T03:51:33.440Z,2.50
2023-03-13T03:54:01.926Z,2.57
2023-03-13T03:56:32.848Z,2.60
2023-03-13T03:59:02.343Z,2.43
2023-03-13T04:01:47.674Z,2.20
2023-03-13T04:04:20.910Z,2.40
2023-03-13T04:06:54.040Z,2.40
2023-03-13T04:09:22.709Z,2.20
2023-03-13T04:11:51.183Z,2.13
2023-03-13T04:14:19.597Z,2.37
2023-03-13T04:16:49.906Z,2.00
2023-03-13T04:19:18.352Z,2.20
2023-03-13T04:21:46.988Z,1.90
2023-03-13T04:24:18.727Z,1.90
2023-03-13T04:29:30.197Z,1.80
2023-03-13T04:32:12.951Z,2.03
2023-03-13T04:34:54.438Z,2.13
2023-03-13T04:37:36.231Z,1.80
2023-03-13T04:40:30.756Z,2.50
2023-03-13T04:43:17.797Z,2.00
2023-03-13T04:46:06.657Z,2.30
2023-03-13T04:48:47.474Z,2.77
2023-03-13T04:51:43.066Z,3.17
2023-03-13T04:54:17.457Z,3.53
2023-03-13T04:59:42.559Z,3.00
2023-03-13T05:02:35.744Z,3.40
2023-03-13T05:05:22.802Z,3.60
2023-03-13T05:08:11.675Z,3.67
2023-03-13T05:11:02.954Z,4.10
2023-03-13T05:13:49.593Z,4.43
2023-03-13T05:16:31.010Z,4.33
2023-03-13T05:19:16.423Z,4.47
2023-03-13T05:22:14.642Z,4.43
2023-03-13T05:24:51.586Z,4.67
2023-03-13T05:27:33.496Z,5.13
2023-03-13T05:30:15.522Z,4.47
2023-03-13T05:33:09.038Z,4.60
2023-03-13T05:35:55.410Z,5.20
2023-03-13T05:38:42.851Z,5.00
2023-03-13T05:41:22.403Z,4.87
2023-03-13T05:44:02.662Z,5.17
2023-03-13T05:46:49.921Z,5.23
2023-03-13T05:49:41.357Z,5.40
2023-03-13T05:52:20.188Z,5.60
2023-03-13T05:55:05.602Z,5.53
2023-03-13T05:58:36.508Z,5.77
2023-03-13T06:04:08.344Z,5.30
2023-03-13T06:11:35.939Z,5.57
2023-03-13T06:22:03.314Z,5.17
2023-03-13T06:24:45.087Z,5.57
2023-03-13T06:29:39.202Z,6.30
2023-03-13T06:32:08.259Z,5.20
2023-03-13T06:34:46.671Z,5.47
2023-03-13T06:37:15.676Z,5.80
2023-03-13T06:39:51.600Z,5.50
2023-03-13T06:42:20.018Z,6.07
2023-03-13T06:44:48.474Z,6.07
2023-03-13T06:57:43.488Z,5.60
2023-03-13T07:52:42.265Z,5.97
2023-03-13T07:55:11.245Z,6.00
2023-03-13T07:57:39.751Z,6.37
2023-03-13T08:00:16.684Z,6.40
2023-03-13T08:02:45.400Z,5.53
2023-03-13T08:06:33.802Z,5.37
2023-03-13T08:09:10.122Z,5.60
2023-03-13T08:11:41.557Z,5.63
2023-03-13T08:14:12.970Z,5.73
2023-03-13T08:16:41.942Z,6.03
2023-03-13T08:19:11.907Z,5.57
2023-03-13T08:21:59.536Z,5.40
2023-03-13T08:24:29.670Z,5.47
2023-03-13T08:26:58.182Z,5.10
2023-03-13T08:29:27.345Z,5.73
2023-03-13T08:31:59.987Z,5.60
2023-03-13T08:34:28.877Z,5.67
2023-03-13T08:36:58.309Z,5.43
2023-03-13T08:39:40.844Z,6.03
2023-03-13T08:42:14.749Z,6.07
2023-03-13T08:44:45.204Z,5.37
2023-03-13T08:47:20.691Z,6.13
2023-03-13T08:49:49.622Z,6.40
2023-03-13T08:52:18.210Z,6.10
2023-03-13T08:54:49.946Z,6.03
2023-03-13T08:57:18.775Z,5.23
2023-03-13T08:59:48.137Z,5.53
2023-03-13T09:02:20.289Z,6.17
2023-03-13T09:04:49.905Z,5.60
2023-03-13T09:07:18.735Z,5.40
2023-03-13T09:09:48.800Z,5.07
2023-03-13T09:12:30.429Z,6.07
2023-03-13T09:15:00.635Z,5.50
2023-03-13T09:17:29.478Z,6.20
2023-03-13T09:20:00.874Z,5.77
2023-03-13T09:22:30.276Z,5.37
2023-03-13T09:25:36.470Z,7.27
2023-03-13T09:28:06.194Z,7.20
2023-03-13T09:30:35.211Z,7.20
2023-03-13T09:33:06.320Z,6.23
2023-03-13T09:36:07.679Z,5.70
2023-03-13T09:38:41.643Z,5.60
2023-03-13T09:41:29.207Z,5.70
2023-03-13T09:44:17.102Z,5.83
2023-03-13T09:50:16.908Z,5.03
2023-03-13T09:52:46.043Z,5.73
2023-03-13T09:55:21.686Z,5.33
2023-03-13T09:57:56.989Z,5.30
2023-03-13T10:00:30.293Z,5.30
2023-03-13T10:03:04.427Z,5.50
2023-03-13T10:05:34.858Z,5.70
2023-03-13T10:08:16.920Z,5.10
2023-03-13T10:10:51.340Z,5.27
2023-03-13T10:13:27.109Z,5.37
2023-03-13T10:15:59.710Z,5.27
2023-03-13T10:18:34.888Z,5.50
2023-03-13T10:21:17.228Z,4.83
2023-03-13T10:24:02.740Z,5.20
2023-03-13T10:26:35.655Z,5.03
2023-03-13T10:29:22.616Z,5.37
2023-03-13T10:31:58.777Z,5.33
2023-03-13T10:34:29.923Z,5.57
2023-03-13T10:37:04.285Z,5.63
2023-03-13T10:39:33.299Z,5.87
2023-03-13T10:42:11.650Z,5.50
2023-03-13T10:44:41.947Z,5.73
2023-03-13T10:47:14.378Z,5.17
2023-03-13T10:49:50.461Z,5.20
2023-03-13T10:52:33.038Z,4.90
2023-03-13T10:55:03.861Z,5.07
2023-03-13T10:57:34.347Z,4.93
2023-03-13T11:00:09.873Z,5.30
2023-03-13T11:02:40.213Z,4.97
2023-03-13T11:05:32.903Z,5.60
2023-03-13T11:08:24.041Z,6.20
2023-03-13T11:11:01.236Z,5.23
2023-03-13T11:13:43.684Z,4.60
2023-03-13T11:16:25.373Z,5.53
2023-03-13T11:19:33.019Z,4.70
2023-03-13T11:22:22.417Z,4.87
2023-03-13T11:24:59.385Z,5.07
2023-03-13T11:27:34.153Z,4.73
2023-03-13T11:30:16.078Z,4.60
2023-03-13T11:32:51.300Z,4.60
2023-03-13T11:35:31.061Z,4.67
2023-03-13T11:38:01.901Z,4.87
2023-03-13T11:40:59.505Z,5.10
2023-03-13T11:43:47.103Z,4.77
2023-03-13T11:46:29.831Z,4.90
2023-03-13T11:49:50.572Z,4.83
2023-03-13T11:52:33.583Z,4.10
2023-03-13T11:55:29.499Z,4.20
2023-03-13T11:58:28.427Z,4.40
2023-03-13T12:01:01.963Z,4.93
2023-03-13T12:03:37.899Z,4.90
2023-03-13T12:06:32.778Z,4.60
2023-03-13T12:09:17.379Z,4.70
2023-03-13T12:11:52.666Z,4.70
2023-03-13T12:17:15.988Z,3.87
2023-03-13T12:20:01.117Z,4.60
2023-03-13T12:22:39.108Z,4.73
2023-03-13T12:25:18.133Z,4.27
2023-03-13T12:27:52.166Z,3.97
2023-03-13T12:30:27.646Z,4.83
2023-03-13T12:33:03.376Z,4.67
2023-03-13T12:35:33.720Z,4.97
2023-03-13T12:38:11.565Z,4.00
2023-03-13T12:40:48.012Z,4.30
2023-03-13T12:43:21.000Z,5.00
2023-03-13T12:46:05.897Z,4.53
2023-03-13T12:48:52.876Z,4.97
2023-03-13T12:51:40.344Z,4.40
2023-03-13T12:54:26.339Z,4.43
2023-03-13T12:57:13.946Z,4.20
2023-03-13T12:59:44.756Z,4.67
2023-03-13T13:02:20.173Z,4.43
2023-03-13T13:04:51.053Z,3.97
2023-03-13T13:07:28.305Z,4.30
2023-03-13T13:10:20.714Z,4.83
2023-03-13T13:13:27.892Z,3.93
2023-03-13T13:16:03.502Z,4.47
2023-03-13T13:18:33.019Z,4.43
2023-03-13T13:21:27.298Z,4.03
2023-03-13T13:24:15.961Z,4.27
2023-03-13T13:26:50.620Z,4.60
2023-03-13T13:29:59.217Z,4.53
2023-03-13T14:11:26.030Z,5.63
2023-03-13T14:14:18.344Z,5.10
2023-03-13T14:16:48.861Z,5.07
2023-03-13T14:19:26.697Z,5.17
2023-03-13T14:22:01.188Z,4.73
2023-03-13T14:24:43.897Z,5.57
2023-03-13T14:27:22.157Z,5.10
2023-03-13T14:30:04.042Z,4.60
2023-03-13T14:32:32.930Z,5.57
2023-03-13T14:35:02.452Z,5.23
2023-03-13T14:37:36.392Z,5.10
2023-03-13T14:40:10.820Z,5.50
2023-03-13T14:42:47.912Z,5.53
2023-03-13T14:45:21.445Z,5.67
2023-03-13T14:47:51.927Z,5.70
2023-03-13T14:50:24.649Z,5.90
2023-03-13T14:52:56.117Z,6.03
2023-03-13T14:55:32.817Z,5.67
2023-03-13T14:58:07.482Z,5.57
2023-03-13T15:00:39.960Z,5.90
2023-03-13T15:03:25.948Z,6.30
2023-03-13T15:06:07.437Z,6.37
2023-03-13T15:08:37.794Z,6.33
2023-03-13T15:11:20.176Z,6.07
2023-03-13T15:13:50.366Z,5.70
2023-03-13T15:16:21.882Z,6.40
2023-03-13T15:18:54.761Z,6.50
2023-03-13T15:21:32.448Z,6.47
2023-03-13T15:24:04.431Z,5.70
2023-03-13T15:26:33.518Z,5.47
2023-03-13T15:29:17.463Z,6.50
2023-03-13T15:31:52.314Z,6.20
2023-03-13T15:34:26.042Z,5.80
2023-03-13T15:46:46.277Z,4.33
2023-03-13T15:49:15.139Z,5.10
2023-03-13T15:51:43.536Z,6.03
2023-03-13T15:54:11.972Z,4.03
2023-03-13T15:56:40.549Z,6.77
2023-03-13T15:59:17.482Z,5.30
2023-03-13T16:01:48.455Z,4.37
2023-03-13T16:04:53.093Z,4.70
2023-03-13T16:07:22.927Z,4.57
2023-03-13T16:09:51.821Z,5.90
2023-03-13T16:12:20.244Z,5.60
2023-03-13T16:14:48.874Z,5.73
2023-03-13T16:17:22.083Z,6.63
2023-03-13T16:19:50.875Z,5.77
2023-03-13T16:22:19.460Z,5.67
2023-03-13T16:24:48.009Z,6.07
2023-03-13T16:27:18.038Z,6.03
2023-03-13T16:29:47.160Z,5.63
2023-03-13T16:32:24.352Z,6.13
2023-03-13T16:34:53.288Z,6.77
2023-03-13T16:37:22.627Z,6.10
2023-03-13T16:40:15.984Z,5.63
2023-03-13T16:49:16.112Z,5.20
2023-03-13T16:52:15.510Z,5.03
2023-03-13T16:54:44.639Z,5.07
2023-03-13T17:01:25.100Z,4.77
2023-03-13T17:03:58.605Z,4.23
2023-03-13T17:06:38.775Z,5.47
2023-03-13T17:09:33.132Z,4.43
2023-03-13T17:12:03.467Z,4.50
2023-03-13T17:14:36.050Z,4.93
2023-03-13T17:17:05.324Z,4.60
2023-03-13T17:19:34.301Z,6.63
2023-03-13T17:22:05.477Z,4.27
2023-03-13T17:24:34.651Z,3.87
2023-03-13T17:27:06.188Z,3.30
2023-03-13T17:29:35.191Z,3.60
2023-03-13T17:32:07.707Z,3.47
2023-03-13T17:35:02.026Z,4.03
2023-03-13T17:37:33.855Z,3.03
2023-03-13T17:40:37.465Z,3.70
2023-03-13T18:29:17.904Z,6.60
2023-03-13T18:32:37.812Z,5.73
2023-03-13T18:35:24.992Z,7.07
2023-03-13T18:37:53.892Z,5.23
2023-03-13T18:40:25.812Z,5.93
2023-03-13T22:32:30.248Z,2.93
2023-03-13T22:34:59.033Z,2.50
2023-03-13T22:37:27.775Z,2.70
2023-03-13T22:39:56.393Z,2.80
2023-03-13T22:42:26.104Z,2.30
2023-03-13T22:44:55.753Z,2.37
2023-03-13T22:47:25.875Z,2.20
2023-03-13T22:49:55.743Z,2.00
2023-03-13T22:52:29.226Z,1.80
2023-03-13T22:54:58.114Z,2.10
2023-03-13T22:57:29.260Z,1.90
2023-03-13T23:00:01.521Z,1.80
2023-03-13T23:02:30.128Z,1.80
2023-03-13T23:05:01.289Z,2.00
2023-03-13T23:07:30.805Z,1.70
2023-03-13T23:10:00.820Z,1.70
2023-03-13T23:12:30.779Z,1.70
2023-03-13T23:15:02.572Z,1.90
2023-03-13T23:17:32.826Z,1.63
2023-03-13T23:20:12.813Z,1.30
2023-03-13T23:22:41.924Z,1.73
2023-03-13T23:25:12.121Z,1.67
2023-03-13T23:27:41.168Z,1.53
2023-03-13T23:30:13.387Z,1.50
2023-03-13T23:32:46.368Z,1.47
2023-03-13T23:35:18.002Z,1.50
2023-03-13T23:37:50.952Z,1.63
2023-03-13T23:40:19.553Z,1.40
2023-03-13T23:42:50.389Z,1.50
2023-03-13T23:45:19.398Z,1.50
2023-03-13T23:47:48.060Z,1.30
2023-03-13T23:50:17.997Z,1.30
2023-03-13T23:52:46.497Z,1.50
2023-03-13T23:55:18.076Z,1.40
2023-03-13T23:57:50.432Z,1.53
